createdAt,value
2018-03-23T00:01:19.576Z,25.23
2018-03-23T00:03:47.151Z,26.13
2018-03-23T00:06:14.711Z,24.60
2018-03-23T00:08:42.261Z,26.20
2018-03-23T00:11:09.793Z,24.67
2018-03-23T00:13:38.148Z,26.70
2018-03-23T00:16:07.195Z,28.37
2018-03-23T00:18:34.759Z,25.60
2018-03-23T00:21:02.284Z,26.47
2018-03-23T00:23:30.618Z,27.40
2018-03-23T00:25:58.177Z,26.90
2018-03-23T00:28:25.761Z,26.60
2018-03-23T00:30:53.298Z,29.63
2018-03-23T00:33:20.993Z,27.90
2018-03-23T00:35:49.326Z,25.10
2018-03-23T00:38:16.873Z,27.83
2018-03-23T00:40:44.445Z,26.27
2018-03-23T00:43:12.005Z,27.17
2018-03-23T00:45:39.570Z,24.57
2018-03-23T00:48:07.101Z,26.20
2018-03-23T00:50:34.848Z,26.50
2018-03-23T00:53:02.411Z,27.13
2018-03-23T00:55:29.975Z,28.57
2018-03-23T00:57:57.612Z,20.10
2018-03-23T01:00:25.153Z,25.93
2018-03-23T01:02:53.696Z,28.97
2018-03-23T01:05:21.448Z,19.63
2018-03-23T01:07:48.983Z,27.53
2018-03-23T01:10:16.543Z,27.90
2018-03-23T01:12:44.846Z,30.00
2018-03-23T01:15:12.407Z,29.40
2018-03-23T01:17:39.941Z,27.47
2018-03-23T01:20:08.263Z,29.60
2018-03-23T01:22:35.814Z,27.87
2018-03-23T01:25:03.597Z,27.80
2018-03-23T01:27:31.237Z,26.97
2018-03-23T01:29:58.794Z,29.10
2018-03-23T01:32:26.390Z,26.40
2018-03-23T01:34:53.920Z,31.00
2018-03-23T01:37:21.481Z,25.27
2018-03-23T01:39:49.032Z,28.30
2018-03-23T01:42:16.585Z,29.10
2018-03-23T01:44:44.125Z,29.10
2018-03-23T01:47:11.790Z,31.17
2018-03-23T01:49:39.324Z,28.93
2018-03-23T01:52:06.889Z,30.30
2018-03-23T01:54:34.496Z,30.60
2018-03-23T01:57:02.054Z,30.20
2018-03-23T01:59:29.608Z,29.80
2018-03-23T02:01:57.170Z,26.13
2018-03-23T02:04:24.830Z,28.47
2018-03-23T02:06:52.431Z,26.27
2018-03-23T02:09:19.981Z,30.63
2018-03-23T02:11:47.560Z,30.03
2018-03-23T02:14:15.110Z,29.27
2018-03-23T02:16:42.681Z,24.43
2018-03-23T02:19:10.225Z,29.00
2018-03-23T02:21:38.038Z,31.07
2018-03-23T02:24:05.565Z,26.23
2018-03-23T02:26:33.110Z,30.90
2018-03-23T02:29:00.664Z,31.83
2018-03-23T02:31:28.353Z,29.60
2018-03-23T02:33:56.700Z,31.80
2018-03-23T02:36:24.248Z,30.83
2018-03-23T02:38:51.806Z,30.43
2018-03-23T02:41:19.342Z,27.63
2018-03-23T02:43:46.905Z,28.57
2018-03-23T02:46:14.434Z,28.80
2018-03-23T02:48:41.990Z,29.37
2018-03-23T02:51:10.295Z,30.73
2018-03-23T02:53:39.712Z,29.50
2018-03-23T02:56:07.250Z,29.03
2018-03-23T02:58:34.852Z,30.20
2018-03-23T03:01:02.384Z,29.00
2018-03-23T03:03:29.998Z,30.20
2018-03-23T03:05:57.535Z,32.33
2018-03-23T03:08:25.893Z,30.73
2018-03-23T03:10:53.437Z,31.17
2018-03-23T03:13:20.974Z,30.33
2018-03-23T03:15:48.535Z,29.73
2018-03-23T03:18:16.077Z,30.63
2018-03-23T03:20:43.822Z,27.90
2018-03-23T03:23:11.362Z,30.57
2018-03-23T03:25:38.929Z,28.23
2018-03-23T03:28:06.465Z,82.67
2018-03-23T03:30:34.022Z,28.20
2018-03-23T03:33:01.749Z,31.03
2018-03-23T03:35:30.077Z,29.50
2018-03-23T03:37:57.628Z,30.20
2018-03-23T03:40:25.229Z,31.37
2018-03-23T03:42:53.517Z,30.00
2018-03-23T03:45:21.106Z,29.37
2018-03-23T03:47:48.793Z,27.50
2018-03-23T03:50:16.366Z,27.43
2018-03-23T03:52:43.903Z,27.07
2018-03-23T03:55:11.462Z,24.07
2018-03-23T03:57:39.114Z,24.90
2018-03-23T04:00:06.661Z,26.90
2018-03-23T04:02:34.438Z,14.47
2018-03-23T04:05:02.105Z,26.83
2018-03-23T04:07:29.741Z,29.90
2018-03-23T04:09:57.282Z,27.27
2018-03-23T04:12:25.607Z,28.63
2018-03-23T04:14:53.133Z,27.43
2018-03-23T04:17:20.751Z,28.27
2018-03-23T04:19:48.442Z,26.07
2018-03-23T04:22:16.013Z,28.23
2018-03-23T04:24:44.422Z,26.80
2018-03-23T04:27:11.985Z,27.00
2018-03-23T04:29:39.546Z,26.53
2018-03-23T04:32:07.110Z,29.80
2018-03-23T04:34:34.651Z,26.50
2018-03-23T04:37:02.386Z,25.00
2018-03-23T04:39:30.735Z,22.17
2018-03-23T04:41:58.309Z,24.33
2018-03-23T04:44:25.856Z,26.03
2018-03-23T04:46:53.418Z,26.30
2018-03-23T04:49:20.957Z,25.73
2018-03-23T04:51:48.518Z,28.57
2018-03-23T04:54:16.053Z,26.20
2018-03-23T04:56:43.621Z,25.50
2018-03-23T04:59:11.227Z,26.63
2018-03-23T05:01:38.727Z,24.50
2018-03-23T05:04:06.290Z,25.83
2018-03-23T05:06:33.836Z,24.93
2018-03-23T05:09:02.358Z,25.83
2018-03-23T05:11:29.901Z,25.63
2018-03-23T05:13:57.525Z,24.60
2018-03-23T05:16:25.075Z,21.27
2018-03-23T05:18:52.653Z,24.20
2018-03-23T05:21:20.198Z,27.37
2018-03-23T05:23:47.769Z,25.63
2018-03-23T05:26:15.336Z,24.47
2018-03-23T05:28:42.904Z,23.97
2018-03-23T05:31:10.465Z,24.73
2018-03-23T05:33:38.062Z,26.00
2018-03-23T05:36:06.382Z,26.23
2018-03-23T05:38:33.983Z,26.43
2018-03-23T05:41:01.543Z,26.17
2018-03-23T05:43:29.113Z,23.00
2018-03-23T05:45:56.658Z,25.20
2018-03-23T05:48:24.377Z,26.37
2018-03-23T05:50:52.976Z,26.03
2018-03-23T05:53:20.532Z,28.47
2018-03-23T05:55:48.112Z,25.87
2018-03-23T05:58:15.668Z,27.63
2018-03-23T06:00:43.257Z,23.40
2018-03-23T06:03:13.350Z,26.40
2018-03-23T06:05:40.931Z,25.37
2018-03-23T06:08:08.496Z,22.00
2018-03-23T06:10:36.069Z,27.13
2018-03-23T06:13:03.605Z,27.10
2018-03-23T06:15:31.180Z,25.83
2018-03-23T06:17:59.487Z,26.37
2018-03-23T06:20:27.048Z,24.50
2018-03-23T06:22:55.368Z,26.73
2018-03-23T06:25:23.183Z,30.60
2018-03-23T06:27:51.490Z,26.60
2018-03-23T06:30:19.051Z,23.43
2018-03-23T06:32:46.588Z,29.70
2018-03-23T06:35:14.925Z,26.40
2018-03-23T06:37:42.477Z,24.90
2018-03-23T06:40:10.184Z,28.10
2018-03-23T06:42:38.523Z,28.83
2018-03-23T06:45:06.328Z,29.30
2018-03-23T06:47:33.882Z,24.03
2018-03-23T06:50:01.445Z,25.30
2018-03-23T06:52:29.855Z,23.07
2018-03-23T06:54:57.526Z,22.27
2018-03-23T06:57:25.097Z,22.30
2018-03-23T06:59:52.904Z,22.17
2018-03-23T07:02:21.242Z,22.83
2018-03-23T07:04:48.786Z,19.90
2018-03-23T07:07:16.375Z,21.60
2018-03-23T07:09:43.931Z,23.47
2018-03-23T07:12:11.513Z,21.60
2018-03-23T07:14:39.077Z,21.20
2018-03-23T07:17:07.405Z,21.27
2018-03-23T07:19:34.964Z,20.10
2018-03-23T07:22:02.511Z,18.33
2018-03-23T07:24:30.081Z,19.43
2018-03-23T07:26:57.617Z,21.10
2018-03-23T07:29:25.277Z,19.33
2018-03-23T07:31:52.809Z,20.17
2018-03-23T07:34:20.381Z,19.67
2018-03-23T07:36:48.698Z,18.90
2018-03-23T07:39:16.321Z,20.90
2018-03-23T07:41:44.634Z,12.20
2018-03-23T07:44:12.221Z,16.90
2018-03-23T07:46:39.770Z,15.73
2018-03-23T07:49:07.378Z,17.40
2018-03-23T07:51:35.677Z,17.57
2018-03-23T07:54:03.241Z,18.37
2018-03-23T07:56:30.773Z,17.40
2018-03-23T07:58:59.109Z,16.53
2018-03-23T08:01:26.688Z,17.67
2018-03-23T08:03:55.035Z,15.03
2018-03-23T08:06:22.574Z,17.40
2018-03-23T08:08:50.141Z,18.90
2018-03-23T08:11:17.706Z,17.77
2018-03-23T08:13:45.277Z,17.10
2018-03-23T08:16:13.864Z,17.87
2018-03-23T08:18:41.632Z,14.53
2018-03-23T08:21:09.185Z,10.73
2018-03-23T08:23:36.760Z,12.00
2018-03-23T08:26:04.293Z,16.83
2018-03-23T08:28:31.853Z,15.03
2018-03-23T08:30:59.394Z,15.77
2018-03-23T08:33:26.969Z,15.13
2018-03-23T08:35:54.501Z,14.37
2018-03-23T08:38:22.175Z,15.30
2018-03-23T08:40:49.707Z,16.10
2018-03-23T08:43:18.024Z,14.40
2018-03-23T08:45:45.582Z,14.77
2018-03-23T08:48:13.139Z,15.10
2018-03-23T08:50:40.894Z,16.23
2018-03-23T08:53:08.512Z,16.60
2018-03-23T08:55:36.064Z,15.53
2018-03-23T08:58:03.667Z,16.40
2018-03-23T09:00:31.258Z,20.17
2018-03-23T09:02:58.817Z,13.33
2018-03-23T09:05:26.360Z,17.03
2018-03-23T09:07:54.099Z,15.20
2018-03-23T09:10:21.645Z,13.10
2018-03-23T09:12:49.984Z,13.97
2018-03-23T09:15:17.581Z,9.97
2018-03-23T09:17:45.120Z,15.00
2018-03-23T09:20:12.658Z,15.50
2018-03-23T09:22:40.309Z,10.40
2018-03-23T09:25:07.914Z,10.77
2018-03-23T09:27:35.883Z,12.90
2018-03-23T09:30:04.537Z,10.17
2018-03-23T09:32:32.082Z,12.67
2018-03-23T09:34:59.629Z,10.40
2018-03-23T09:37:27.222Z,10.80
2018-03-23T09:39:54.770Z,10.80
2018-03-23T09:42:22.354Z,9.63
2018-03-23T09:44:49.897Z,9.70
2018-03-23T09:47:17.450Z,11.13
2018-03-23T09:49:45.359Z,10.50
2018-03-23T09:52:12.913Z,10.10
2018-03-23T09:54:41.265Z,11.40
2018-03-23T09:57:10.385Z,9.03
2018-03-23T09:59:37.951Z,11.27
2018-03-23T10:02:06.305Z,9.67
2018-03-23T10:04:33.980Z,10.80
2018-03-23T10:07:01.560Z,10.40
2018-03-23T10:09:29.884Z,9.47
2018-03-23T10:11:57.432Z,9.90
2018-03-23T10:14:25.010Z,11.13
2018-03-23T10:16:52.618Z,10.20
2018-03-23T10:19:20.205Z,6.73
2018-03-23T10:21:47.760Z,9.30
2018-03-23T10:24:15.414Z,10.10
2018-03-23T10:26:43.179Z,8.50
2018-03-23T10:29:10.760Z,9.97
2018-03-23T10:31:38.289Z,7.67
2018-03-23T10:34:05.858Z,9.33
2018-03-23T10:36:33.422Z,8.60
2018-03-23T10:39:00.983Z,8.40
2018-03-23T10:41:28.736Z,9.97
2018-03-23T10:43:56.314Z,9.30
2018-03-23T10:46:23.865Z,8.57
2018-03-23T10:48:51.425Z,10.77
2018-03-23T10:51:18.983Z,11.00
2018-03-23T10:53:46.553Z,9.07
2018-03-23T10:56:14.092Z,12.13
2018-03-23T10:58:41.766Z,10.43
2018-03-23T11:01:14.994Z,12.83
2018-03-23T11:03:42.553Z,9.70
2018-03-23T11:06:10.102Z,11.57
2018-03-23T11:08:37.690Z,9.80
2018-03-23T11:11:05.422Z,9.10
2018-03-23T11:13:32.990Z,8.70
2018-03-23T11:16:00.529Z,9.90
2018-03-23T11:18:28.080Z,8.70
2018-03-23T11:20:55.618Z,6.60
2018-03-23T11:23:23.214Z,10.87
2018-03-23T11:25:50.749Z,8.90
2018-03-23T11:28:18.308Z,10.00
2018-03-23T11:30:45.896Z,10.43
2018-03-23T11:33:13.442Z,10.30
2018-03-23T11:35:40.997Z,9.17
2018-03-23T11:38:08.601Z,11.00
2018-03-23T11:40:36.178Z,10.33
2018-03-23T11:43:04.473Z,10.20
2018-03-23T11:45:32.052Z,10.03
2018-03-23T11:47:59.597Z,9.23
2018-03-23T11:50:27.177Z,10.43
2018-03-23T11:52:54.729Z,10.00
2018-03-23T11:55:22.306Z,10.33
2018-03-23T11:57:49.869Z,10.33
2018-03-23T12:00:17.429Z,10.40
2018-03-23T12:02:44.976Z,10.07
2018-03-23T12:05:12.545Z,10.50
2018-03-23T12:07:40.090Z,10.80
2018-03-23T12:10:07.733Z,9.17
2018-03-23T12:12:35.305Z,9.50
2018-03-23T12:15:02.862Z,8.90
2018-03-23T12:17:30.429Z,9.67
2018-03-23T12:19:58.118Z,9.57
2018-03-23T12:22:25.695Z,12.17
2018-03-23T12:24:53.506Z,10.47
2018-03-23T12:27:21.085Z,10.50
2018-03-23T12:29:48.629Z,12.57
2018-03-23T12:32:16.190Z,11.43
2018-03-23T12:34:43.758Z,11.83
2018-03-23T12:37:11.341Z,8.97
2018-03-23T12:39:38.901Z,11.33
2018-03-23T12:42:06.529Z,9.83
2018-03-23T12:44:34.083Z,11.40
2018-03-23T12:47:01.650Z,11.70
2018-03-23T12:49:29.420Z,11.17
2018-03-23T12:51:56.970Z,12.03
2018-03-23T12:54:24.550Z,11.43
2018-03-23T12:56:52.144Z,12.10
2018-03-23T12:59:19.710Z,13.53
2018-03-23T13:01:48.042Z,11.43
2018-03-23T13:04:15.587Z,12.83
2018-03-23T13:06:43.158Z,11.63
2018-03-23T13:09:10.704Z,12.93
2018-03-23T13:11:38.262Z,12.40
2018-03-23T13:14:05.838Z,11.03
2018-03-23T13:16:35.107Z,11.00
2018-03-23T13:19:02.685Z,11.30
2018-03-23T13:21:30.229Z,10.77
2018-03-23T13:23:57.788Z,10.70
2018-03-23T13:26:25.330Z,10.23
2018-03-23T13:28:52.893Z,9.30
2018-03-23T13:31:21.198Z,9.30
2018-03-23T13:33:48.766Z,11.73
2018-03-23T13:36:16.325Z,10.83
2018-03-23T13:38:43.890Z,10.90
2018-03-23T13:41:11.454Z,10.17
2018-03-23T13:43:39.134Z,9.70
2018-03-23T13:46:06.758Z,10.00
2018-03-23T13:48:34.318Z,9.47
2018-03-23T13:51:02.028Z,9.53
2018-03-23T13:53:29.585Z,6.47
2018-03-23T13:55:57.122Z,10.10
2018-03-23T14:01:30.418Z,9.20
2018-03-23T14:03:57.972Z,8.90
2018-03-23T14:06:25.511Z,9.50
2018-03-23T14:08:53.074Z,11.23
2018-03-23T14:11:20.635Z,10.67
2018-03-23T14:13:48.177Z,10.50
2018-03-23T14:16:15.744Z,11.50
2018-03-23T14:18:44.050Z,10.00
2018-03-23T14:21:11.629Z,11.50
2018-03-23T14:23:39.178Z,10.67
2018-03-23T14:26:06.774Z,10.37
2018-03-23T14:28:34.424Z,10.37
2018-03-23T14:31:02.054Z,9.03
2018-03-23T14:33:29.606Z,9.53
2018-03-23T14:35:57.261Z,11.60
2018-03-23T14:38:24.844Z,10.57
2018-03-23T14:40:52.417Z,10.00
2018-03-23T14:43:19.965Z,11.87
2018-03-23T14:45:47.547Z,11.57
2018-03-23T14:48:15.092Z,10.23
2018-03-23T14:50:42.660Z,10.80
2018-03-23T14:53:10.249Z,9.07
2018-03-23T14:55:38.614Z,11.90
2018-03-23T14:58:06.366Z,10.80
2018-03-23T15:00:33.991Z,12.20
2018-03-23T15:03:01.713Z,9.67
2018-03-23T15:05:30.053Z,13.03
2018-03-23T15:07:57.626Z,10.80
2018-03-23T15:10:25.157Z,12.00
2018-03-23T15:12:52.722Z,11.00
2018-03-23T15:15:20.269Z,12.60
2018-03-23T15:17:47.838Z,10.57
2018-03-23T15:20:15.545Z,12.10
2018-03-23T15:22:43.111Z,9.63
2018-03-23T15:25:10.665Z,11.37
2018-03-23T15:27:38.220Z,9.00
2018-03-23T15:30:05.810Z,12.03
2018-03-23T15:32:33.377Z,10.90
2018-03-23T15:35:01.121Z,10.63
2018-03-23T15:37:29.454Z,11.03
2018-03-23T15:39:57.001Z,10.30
2018-03-23T15:42:24.755Z,10.53
2018-03-23T15:44:52.313Z,9.10
2018-03-23T15:47:19.880Z,9.70
2018-03-23T15:49:47.516Z,9.10
2018-03-23T15:52:15.122Z,10.27
2018-03-23T15:54:42.670Z,10.87
2018-03-23T15:57:10.241Z,10.00
2018-03-23T15:59:37.812Z,9.63
2018-03-23T16:02:05.476Z,9.03
2018-03-23T16:04:33.010Z,10.40
2018-03-23T16:07:00.551Z,10.43
2018-03-23T16:09:28.129Z,10.00
2018-03-23T16:11:55.670Z,9.50
2018-03-23T16:14:23.461Z,9.60
2018-03-23T16:16:51.080Z,8.83
2018-03-23T16:19:18.647Z,8.70
2018-03-23T16:21:46.213Z,8.30
2018-03-23T16:24:13.767Z,9.80
2018-03-23T16:26:41.307Z,9.83
2018-03-23T16:29:08.875Z,9.40
2018-03-23T16:31:36.509Z,10.43
2018-03-23T16:34:04.030Z,9.40
2018-03-23T16:36:34.309Z,9.97
2018-03-23T16:39:03.125Z,8.90
2018-03-23T16:41:30.857Z,9.70
2018-03-23T16:43:59.302Z,8.83
2018-03-23T16:46:26.849Z,8.73
2018-03-23T16:48:54.402Z,9.73
2018-03-23T16:51:21.947Z,9.73
2018-03-23T16:53:49.499Z,7.97
2018-03-23T16:56:17.047Z,9.13
2018-03-23T16:58:44.619Z,9.77
2018-03-23T17:01:12.491Z,9.20
2018-03-23T17:03:40.051Z,9.30
2018-03-23T17:06:07.794Z,10.13
2018-03-23T17:08:35.382Z,10.67
2018-03-23T17:11:02.935Z,11.80
2018-03-23T17:13:30.701Z,12.07
2018-03-23T17:15:58.284Z,10.43
2018-03-23T17:18:25.837Z,11.27
2018-03-23T17:20:53.398Z,9.00
2018-03-23T17:23:20.942Z,10.70
2018-03-23T17:25:48.509Z,9.23
2018-03-23T17:28:16.158Z,10.37
2018-03-23T17:30:43.721Z,10.17
2018-03-23T17:33:11.280Z,8.73
2018-03-23T17:35:38.864Z,9.57
2018-03-23T17:38:06.418Z,9.70
2018-03-23T17:40:34.285Z,8.67
2018-03-23T17:43:01.845Z,9.77
2018-03-23T17:45:29.488Z,9.80
2018-03-23T17:47:57.054Z,9.53
2018-03-23T17:50:24.615Z,10.13
2018-03-23T17:52:52.194Z,9.93
2018-03-23T17:55:19.738Z,9.30
2018-03-23T17:57:48.061Z,9.70
2018-03-23T18:00:15.630Z,9.50
2018-03-23T18:02:43.995Z,9.90
2018-03-23T18:05:11.567Z,9.50
2018-03-23T18:07:39.964Z,9.10
2018-03-23T18:10:07.576Z,9.77
2018-03-23T18:12:35.273Z,10.37
2018-03-23T18:15:02.863Z,12.03
2018-03-23T18:17:30.444Z,11.87
2018-03-23T18:19:57.987Z,13.40
2018-03-23T18:22:25.571Z,14.53
2018-03-23T18:24:54.035Z,16.40
2018-03-23T18:27:21.612Z,12.53
2018-03-23T18:29:49.179Z,14.77
2018-03-23T18:32:16.875Z,19.57
2018-03-23T18:34:44.416Z,16.30
2018-03-23T18:37:12.232Z,14.80
2018-03-23T18:39:39.794Z,17.00
2018-03-23T18:42:07.364Z,18.73
2018-03-23T18:44:36.425Z,20.87
2018-03-23T18:47:03.990Z,19.20
2018-03-23T18:49:31.554Z,20.70
2018-03-23T18:51:59.201Z,27.63
2018-03-23T18:54:26.766Z,26.03
2018-03-23T18:56:54.337Z,22.50
2018-03-23T18:59:21.886Z,22.13
2018-03-23T19:01:49.454Z,20.17
2018-03-23T19:04:16.994Z,17.00
2018-03-23T19:06:44.766Z,20.40
2018-03-23T19:09:12.348Z,20.17
2018-03-23T19:11:39.936Z,17.53
2018-03-23T19:14:07.662Z,16.40
2018-03-23T19:16:35.238Z,16.70
2018-03-23T19:19:02.835Z,16.07
2018-03-23T19:21:31.451Z,15.47
2018-03-23T19:23:59.114Z,16.87
2018-03-23T19:26:26.673Z,17.87
2018-03-23T19:28:54.300Z,20.33
2018-03-23T19:31:21.846Z,19.67
2018-03-23T19:33:49.409Z,18.40
2018-03-23T19:36:16.965Z,16.87
2018-03-23T19:38:46.039Z,15.87
2018-03-23T19:41:13.601Z,17.10
2018-03-23T19:43:41.186Z,19.40
2018-03-23T19:46:09.051Z,17.83
2018-03-23T19:48:36.687Z,18.37
2018-03-23T19:51:04.254Z,18.53
2018-03-23T19:53:32.860Z,17.93
2018-03-23T19:56:00.468Z,20.23
2018-03-23T19:58:28.096Z,20.43
2018-03-23T20:00:56.930Z,20.80
2018-03-23T20:03:24.793Z,18.70
2018-03-23T20:05:52.449Z,19.67
2018-03-23T20:08:20.142Z,22.67
2018-03-23T20:10:47.783Z,21.00
2018-03-23T20:13:15.340Z,21.50
2018-03-23T20:15:42.965Z,19.53
2018-03-23T20:18:17.037Z,17.53
2018-03-23T20:20:50.237Z,20.17
2018-03-23T20:23:17.836Z,19.90
2018-03-23T20:25:46.215Z,18.27
2018-03-23T20:28:19.465Z,18.80
2018-03-23T20:30:47.286Z,19.00
2018-03-23T20:33:14.830Z,18.47
2018-03-23T20:35:43.158Z,18.53
2018-03-23T20:38:10.712Z,22.10
2018-03-23T20:40:38.261Z,19.70
2018-03-23T20:43:05.861Z,20.27
2018-03-23T20:45:33.417Z,21.60
2018-03-23T20:48:01.760Z,18.23
2018-03-23T20:50:29.306Z,19.40
2018-03-23T20:52:56.887Z,21.17
2018-03-23T20:55:24.939Z,21.77
2018-03-23T20:57:52.477Z,21.33
2018-03-23T21:00:20.797Z,21.20
2018-03-23T21:02:48.388Z,19.20
2018-03-23T21:05:19.206Z,20.70
2018-03-23T21:07:46.753Z,20.30
2018-03-23T21:10:14.391Z,19.80
2018-03-23T21:12:41.959Z,22.87
2018-03-23T21:15:09.527Z,20.57
2018-03-23T21:17:37.086Z,19.50
2018-03-23T21:20:04.630Z,21.53
2018-03-23T21:22:32.187Z,19.90
2018-03-23T21:24:59.725Z,20.60
2018-03-23T21:27:27.308Z,20.83
2018-03-23T21:29:54.856Z,20.43
2018-03-23T21:32:23.347Z,19.10
2018-03-23T21:34:50.904Z,19.60
2018-03-23T21:37:18.570Z,19.60
2018-03-23T21:39:46.137Z,19.80
2018-03-23T21:42:13.702Z,19.30
2018-03-23T21:44:41.267Z,19.57
2018-03-23T21:47:08.960Z,19.50
2018-03-23T21:49:36.576Z,20.83
2018-03-23T21:52:04.304Z,20.03
2018-03-23T21:54:32.941Z,21.07
2018-03-23T21:57:00.483Z,20.77
2018-03-23T21:59:28.242Z,21.23
2018-03-23T22:01:55.800Z,20.30
2018-03-23T22:04:23.374Z,19.63
2018-03-23T22:06:50.925Z,19.07
2018-03-23T22:09:18.487Z,20.90
2018-03-23T22:11:46.032Z,21.50
2018-03-23T22:14:13.658Z,22.17
2018-03-23T22:16:41.970Z,21.23
2018-03-23T22:19:09.534Z,19.90
2018-03-23T22:21:37.128Z,19.67
2018-03-23T22:24:04.669Z,20.77
2018-03-23T22:26:32.965Z,21.93
2018-03-23T22:29:00.507Z,21.10
2018-03-23T22:31:28.064Z,19.90
2018-03-23T22:33:55.630Z,21.67
2018-03-23T22:36:23.210Z,19.10
2018-03-23T22:38:50.762Z,19.37
2018-03-23T22:41:18.583Z,21.20
2018-03-23T22:43:46.141Z,20.53
2018-03-23T22:46:13.737Z,21.90
2018-03-23T22:48:41.283Z,21.83
2018-03-23T22:51:08.881Z,19.07
2018-03-23T22:53:37.495Z,20.17
2018-03-23T22:56:05.828Z,21.00
2018-03-23T22:58:33.373Z,19.57
2018-03-23T23:01:01.161Z,19.60
2018-03-23T23:03:28.972Z,18.90
2018-03-23T23:05:56.525Z,21.97
2018-03-23T23:08:24.094Z,20.27
2018-03-23T23:10:51.660Z,21.93
2018-03-23T23:13:19.239Z,21.20
2018-03-23T23:15:46.780Z,19.83
2018-03-23T23:18:14.338Z,19.50
2018-03-23T23:20:42.385Z,21.83
2018-03-23T23:23:10.716Z,21.30
2018-03-23T23:25:38.259Z,24.07
2018-03-23T23:28:05.840Z,20.13
2018-03-23T23:30:33.416Z,21.47
2018-03-23T23:33:00.977Z,20.83
2018-03-23T23:35:30.022Z,22.50
2018-03-23T23:37:57.579Z,21.80
2018-03-23T23:40:25.135Z,22.70
2018-03-23T23:42:52.903Z,23.57
2018-03-23T23:45:20.564Z,24.37
2018-03-23T23:47:48.136Z,23.23
2018-03-23T23:50:15.685Z,24.30
2018-03-23T23:52:43.346Z,20.60
2018-03-23T23:55:10.902Z,21.50
2018-03-23T23:57:38.510Z,24.33
